Time;durP1;ratioP1;P1;durP2;ratioP2;P2;SDS_P1;SDS_P2;PMS_P1;PMS_P2;Temp;Humidity;BMP_temperature;BMP_pressure;BME280_temperature;BME280_humidity;BME280_pressure;Samples;Min_cycle;Max_cycle;Signal;HPM_P1;HPM_P2
2021/03/28 00:01:15;;;;;;;18.13;4.55;;;5.00;86.50;;;;;;5073776;28;20037;-70
2021/03/28 00:03:58;;;;;;;13.15;3.85;;;5.00;86.60;;;;;;5055600;28;20119;-70
2021/03/28 00:06:29;;;;;;;15.30;4.20;;;5.00;86.80;;;;;;5073071;28;20044;-70
2021/03/28 00:09:10;;;;;;;13.02;3.40;;;5.00;87.00;;;;;;5073459;28;20604;-70
2021/03/28 00:11:56;;;;;;;15.82;4.72;;;5.00;86.50;;;;;;5073281;28;20068;-70
2021/03/28 00:14:35;;;;;;;24.95;5.05;;;5.00;87.30;;;;;;5073350;28;20047;-70
2021/03/28 00:17:25;;;;;;;15.07;4.82;;;5.00;86.80;;;;;;5073443;28;20090;-70
2021/03/28 00:19:59;;;;;;;15.38;4.07;;;5.00;86.90;;;;;;5073098;28;20476;-70
2021/03/28 00:22:38;;;;;;;17.48;4.50;;;5.10;86.90;;;;;;5073796;28;20037;-70
2021/03/28 00:25:19;;;;;;;14.10;4.10;;;5.00;87.20;;;;;;5073241;28;20101;-70
2021/03/28 00:27:49;;;;;;;13.90;4.68;;;5.00;87.80;;;;;;5073275;28;20396;-70
2021/03/28 00:30:15;;;;;;;18.05;5.50;;;5.10;87.60;;;;;;5073082;28;20036;-70
2021/03/28 00:32:45;;;;;;;15.00;4.57;;;5.10;87.60;;;;;;5073065;28;20036;-70
2021/03/28 00:35:16;;;;;;;15.35;4.43;;;5.10;87.60;;;;;;5073184;28;20463;-70
2021/03/28 00:37:45;;;;;;;15.32;4.30;;;5.20;87.90;;;;;;5073312;28;20093;-70
2021/03/28 00:40:11;;;;;;;18.35;5.15;;;5.00;88.50;;;;;;5073227;28;20044;-70
2021/03/28 00:42:40;;;;;;;16.13;5.63;;;5.10;87.80;;;;;;5073735;28;20040;-70
2021/03/28 00:45:09;;;;;;;14.38;4.20;;;5.10;88.00;;;;;;5072817;28;20094;-70
2021/03/28 00:47:36;;;;;;;19.05;4.25;;;5.00;87.90;;;;;;5073027;28;20071;-70
2021/03/28 00:50:09;;;;;;;10.55;4.50;;;5.10;88.10;;;;;;5073104;28;20029;-70
2021/03/28 00:52:42;;;;;;;19.77;5.25;;;5.10;88.20;;;;;;5072855;28;20154;-70
2021/03/28 00:55:24;;;;;;;15.48;4.65;;;5.00;88.00;;;;;;5076061;28;20033;-70
2021/03/28 00:58:01;;;;;;;14.93;4.97;;;5.10;88.20;;;;;;5076787;28;20037;-70
2021/03/28 01:00:51;;;;;;;17.15;4.65;;;5.10;88.10;;;;;;5077153;28;20039;-70
2021/03/28 01:03:33;;;;;;;15.98;4.30;;;5.10;88.30;;;;;;5076603;28;20036;-70
2021/03/28 01:06:12;;;;;;;18.10;4.45;;;5.10;88.90;;;;;;5076232;28;20072;-70
2021/03/28 01:08:52;;;;;;;23.05;5.15;;;5.10;89.10;;;;;;5077099;28;20041;-70
2021/03/28 01:11:36;;;;;;;18.70;5.47;;;5.10;89.80;;;;;;5076925;28;20112;-70
2021/03/28 01:14:24;;;;;;;21.10;5.93;;;5.10;89.20;;;;;;5077025;28;20111;-70
2021/03/28 01:17:10;;;;;;;18.38;4.72;;;5.20;89.60;;;;;;5076911;28;20055;-70
2021/03/28 01:20:39;;;;;;;12.27;5.18;;;5.20;89.70;;;;;;5076265;28;20048;-70
2021/03/28 01:23:16;;;;;;;22.33;5.57;;;5.20;89.90;;;;;;4995184;28;20514;-70
2021/03/28 01:26:04;;;;;;;22.45;4.93;;;5.30;89.40;;;;;;4994504;28;20049;-70
2021/03/28 01:28:49;;;;;;;24.13;5.68;;;5.30;89.40;;;;;;5065247;28;20077;-70
2021/03/28 01:31:15;;;;;;;19.80;6.30;;;5.30;89.30;;;;;;5076421;28;20045;-70
2021/03/28 01:33:55;;;;;;;18.90;4.85;;;5.30;89.50;;;;;;5076383;28;20461;-70
2021/03/28 01:36:36;;;;;;;20.77;5.75;;;5.30;89.50;;;;;;5075666;28;20510;-70
2021/03/28 01:39:18;;;;;;;23.48;5.40;;;5.40;89.50;;;;;;5076388;28;20029;-70
2021/03/28 01:41:54;;;;;;;17.23;4.75;;;5.30;89.80;;;;;;5076040;28;20029;-70
2021/03/28 01:44:42;;;;;;;23.30;6.22;;;5.30;90.20;;;;;;5076273;28;20089;-69
2021/03/28 01:47:15;;;;;;;21.00;5.13;;;5.30;90.10;;;;;;5075793;28;20041;-70
2021/03/28 01:50:04;;;;;;;17.95;5.65;;;5.30;90.10;;;;;;5075998;28;20116;-70
2021/03/28 01:52:37;;;;;;;17.85;5.13;;;5.30;90.30;;;;;;5076005;28;20036;-70
2021/03/28 01:55:44;;;;;;;18.90;5.15;;;5.20;90.50;;;;;;5057739;28;20077;-70
2021/03/28 01:58:29;;;;;;;16.30;5.03;;;5.20;90.90;;;;;;5010987;28;20049;-70
2021/03/28 02:01:22;;;;;;;18.50;5.70;;;5.20;90.70;;;;;;5075759;28;20119;-70
2021/03/28 02:04:13;;;;;;;17.17;5.00;;;5.20;90.90;;;;;;5075718;28;20116;-70
2021/03/28 02:06:41;;;;;;;18.98;5.60;;;5.20;90.80;;;;;;5074186;28;20555;-70
2021/03/28 02:09:10;;;;;;;18.23;5.32;;;5.20;91.20;;;;;;5075476;28;20040;-70
2021/03/28 02:11:58;;;;;;;14.50;4.90;;;5.30;90.90;;;;;;5075386;28;20040;-70
2021/03/28 02:14:46;;;;;;;17.30;5.25;;;5.30;91.00;;;;;;5075230;28;20040;-70
2021/03/28 02:17:43;;;;;;;20.13;5.25;;;5.30;90.90;;;;;;5075228;28;20036;-70
2021/03/28 02:20:26;;;;;;;19.00;5.43;;;5.40;90.80;;;;;;5075555;28;20047;-70
2021/03/28 02:23:08;;;;;;;21.92;5.50;;;5.40;90.90;;;;;;5075435;28;20558;-70
2021/03/28 02:25:47;;;;;;;15.30;5.25;;;5.30;91.00;;;;;;5074707;28;20051;-70
2021/03/28 02:28:33;;;;;;;19.50;6.03;;;5.30;90.90;;;;;;5075606;28;20472;-70
2021/03/28 02:31:10;;;;;;;23.65;5.97;;;5.40;91.00;;;;;;5075648;28;20071;-70
2021/03/28 02:33:51;;;;;;;14.52;4.95;;;5.40;90.80;;;;;;5075446;28;20055;-70
2021/03/28 02:36:38;;;;;;;14.13;4.60;;;5.40;90.70;;;;;;5074650;28;20121;-70
2021/03/28 02:39:28;;;;;;;24.55;5.78;;;5.40;90.80;;;;;;5074819;28;20037;-70
2021/03/28 02:42:03;;;;;;;18.67;4.93;;;5.40;90.90;;;;;;5074827;28;20036;-70
2021/03/28 02:44:51;;;;;;;18.83;5.60;;;5.30;90.90;;;;;;5074539;28;20036;-70
2021/03/28 02:47:19;;;;;;;16.88;6.00;;;5.30;90.90;;;;;;5074945;28;20045;-70
2021/03/28 02:50:07;;;;;;;20.27;5.97;;;5.40;90.80;;;;;;5075171;28;20527;-70
2021/03/28 02:52:57;;;;;;;16.95;5.82;;;5.40;90.90;;;;;;5075125;28;20036;-70
2021/03/28 02:56:00;;;;;;;17.08;4.95;;;5.40;90.90;;;;;;5074358;28;20043;-70
2021/03/28 02:58:49;;;;;;;22.30;5.57;;;5.40;90.80;;;;;;5074511;28;20033;-70
2021/03/28 03:01:36;;;;;;;23.77;5.82;;;5.50;90.90;;;;;;5074644;28;20485;-70
2021/03/28 03:04:35;;;;;;;18.20;5.60;;;5.40;91.00;;;;;;5074694;28;20097;-70
2021/03/28 03:07:22;;;;;;;16.73;5.32;;;5.50;90.90;;;;;;5074476;28;20083;-70
2021/03/28 03:10:25;;;;;;;15.85;5.43;;;5.40;90.80;;;;;;5074512;28;20033;-70
2021/03/28 03:13:12;;;;;;;24.48;5.85;;;5.50;90.90;;;;;;5074416;28;20041;-70
2021/03/28 03:16:03;;;;;;;17.88;5.38;;;5.50;90.90;;;;;;5073998;28;20041;-70
2021/03/28 03:18:47;;;;;;;17.85;6.38;;;5.60;90.80;;;;;;5074377;28;20098;-70
2021/03/28 03:21:24;;;;;;;16.95;5.63;;;5.50;90.80;;;;;;5073968;28;20113;-70
2021/03/28 03:24:20;;;;;;;22.30;6.45;;;5.60;90.80;;;;;;5074171;28;20043;-70
2021/03/28 03:27:18;;;;;;;18.23;6.57;;;5.50;90.90;;;;;;5073611;28;20047;-70
2021/03/28 03:29:58;;;;;;;18.50;7.20;;;5.50;91.00;;;;;;5073818;28;20037;-70
2021/03/28 03:32:50;;;;;;;19.27;5.80;;;5.50;90.90;;;;;;5073766;28;20037;-70
2021/03/28 03:35:35;;;;;;;11.98;6.00;;;5.50;90.90;;;;;;5042596;28;20126;-69
2021/03/28 03:38:27;;;;;;;21.38;6.55;;;5.60;91.00;;;;;;5073718;28;20469;-70
2021/03/28 03:41:19;;;;;;;21.88;7.18;;;5.50;91.00;;;;;;5025891;28;20424;-70
2021/03/28 03:43:48;;;;;;;17.88;6.13;;;5.50;91.00;;;;;;5073651;28;20033;-70
2021/03/28 03:46:40;;;;;;;26.02;6.60;;;5.60;91.00;;;;;;5073131;28;20496;-70
2021/03/28 03:49:34;;;;;;;13.88;5.20;;;5.60;90.90;;;;;;5073633;28;20043;-70
2021/03/28 03:52:25;;;;;;;22.67;6.53;;;5.60;91.10;;;;;;5073689;28;20040;-70
2021/03/28 03:55:04;;;;;;;28.00;7.00;;;5.60;90.90;;;;;;5073138;28;20045;-70
2021/03/28 03:57:38;;;;;;;18.95;5.88;;;5.60;90.90;;;;;;5073330;28;20602;-70
2021/03/28 04:00:28;;;;;;;13.07;4.90;;;5.60;90.90;;;;;;5073425;28;20032;-70
2021/03/28 04:03:06;;;;;;;16.55;5.47;;;5.60;91.00;;;;;;5073714;28;20111;-70
2021/03/28 04:05:40;;;;;;;20.65;6.15;;;5.60;91.00;;;;;;5073138;28;20427;-70
2021/03/28 04:08:24;;;;;;;21.45;5.63;;;5.60;91.00;;;;;;5073766;28;20036;-70
2021/03/28 04:11:03;;;;;;;18.80;5.47;;;5.60;91.00;;;;;;5073916;28;20106;-70
2021/03/28 04:14:16;;;;;;;18.23;5.63;;;5.60;91.10;;;;;;5055650;28;20124;-70
2021/03/28 04:16:44;;;;;;;17.35;4.72;;;5.60;91.10;;;;;;5072952;28;20036;-70
2021/03/28 04:19:31;;;;;;;15.77;5.30;;;5.60;91.10;;;;;;5073065;28;20044;-70
2021/03/28 04:22:37;;;;;;;14.27;4.95;;;5.60;91.20;;;;;;5073211;28;20131;-70
2021/03/28 04:25:14;;;;;;;18.55;5.10;;;5.60;91.20;;;;;;5073273;28;20043;-70
2021/03/28 04:28:12;;;;;;;21.20;5.72;;;5.60;91.20;;;;;;5073821;28;20153;-70
2021/03/28 04:30:55;;;;;;;18.00;5.75;;;5.50;91.30;;;;;;5080149;28;20040;-70
2021/03/28 04:33:34;;;;;;;17.80;5.25;;;5.50;91.40;;;;;;5080009;28;20090;-70
2021/03/28 04:36:11;;;;;;;19.95;5.22;;;5.50;91.30;;;;;;5079746;28;20524;-70
2021/03/28 04:38:37;;;;;;;19.40;6.20;;;5.40;91.40;;;;;;5079763;28;20045;-70
2021/03/28 04:41:24;;;;;;;13.90;5.38;;;5.40;91.50;;;;;;5079580;28;20093;-70
2021/03/28 04:44:22;;;;;;;19.10;5.85;;;5.40;91.50;;;;;;5079652;28;20040;-70
2021/03/28 04:47:18;;;;;;;17.92;7.55;;;5.40;91.40;;;;;;5079407;28;20044;-70
2021/03/28 04:50:02;;;;;;;20.77;5.20;;;5.40;91.50;;;;;;5079693;28;20044;-70
2021/03/28 04:52:31;;;;;;;23.30;5.80;;;5.30;91.70;;;;;;5079789;28;20044;-70
2021/03/28 04:55:15;;;;;;;13.88;5.72;;;5.30;91.80;;;;;;5079213;28;20037;-70
2021/03/28 04:58:25;;;;;;;18.83;6.18;;;5.30;91.80;;;;;;5079596;28;20068;-70
2021/03/28 05:01:31;;;;;;;18.98;6.30;;;5.30;92.20;;;;;;5059457;28;20075;-70
2021/03/28 05:04:20;;;;;;;15.70;5.78;;;5.30;91.90;;;;;;5079582;28;20127;-70
2021/03/28 05:07:16;;;;;;;18.63;6.43;;;5.30;92.10;;;;;;5079495;28;20048;-70
2021/03/28 05:10:20;;;;;;;20.05;5.97;;;5.30;92.00;;;;;;5079810;28;20064;-70
2021/03/28 05:13:23;;;;;;;16.08;5.88;;;5.30;92.00;;;;;;5079708;28;20032;-70
2021/03/28 05:15:58;;;;;;;12.55;5.63;;;5.30;92.10;;;;;;5079398;28;20040;-70
2021/03/28 05:18:56;;;;;;;24.65;7.22;;;5.30;92.10;;;;;;5079526;28;20033;-70
2021/03/28 05:21:39;;;;;;;14.95;5.35;;;5.30;92.10;;;;;;5079316;28;20494;-70
2021/03/28 05:24:32;;;;;;;20.48;6.75;;;5.30;92.10;;;;;;5079520;28;20081;-70
2021/03/28 05:27:22;;;;;;;17.48;5.95;;;5.30;92.10;;;;;;5079201;28;20111;-70
2021/03/28 05:30:26;;;;;;;15.93;5.60;;;5.20;92.00;;;;;;5079185;28;20492;-70
2021/03/28 05:33:16;;;;;;;16.02;6.22;;;5.20;92.10;;;;;;5079200;28;20044;-70
2021/03/28 05:36:09;;;;;;;18.05;6.15;;;5.20;92.20;;;;;;5079030;28;20040;-70
2021/03/28 05:38:51;;;;;;;16.95;6.22;;;5.30;92.20;;;;;;5079395;28;20064;-70
2021/03/28 05:41:51;;;;;;;20.42;6.82;;;5.20;92.30;;;;;;5075035;28;20522;-70
2021/03/28 05:44:20;;;;;;;18.30;6.50;;;5.30;92.30;;;;;;5058329;28;20047;-70
2021/03/28 05:47:20;;;;;;;18.58;5.75;;;5.30;92.20;;;;;;5075510;28;20587;-70
2021/03/28 05:50:14;;;;;;;20.65;5.80;;;5.40;92.10;;;;;;5076265;28;20495;-70
2021/03/28 05:53:23;;;;;;;15.20;6.03;;;5.40;92.10;;;;;;5075779;28;20079;-70
2021/03/28 05:56:27;;;;;;;15.68;5.75;;;5.40;92.30;;;;;;5075674;28;20484;-70
2021/03/28 05:59:16;;;;;;;13.25;5.70;;;5.40;92.30;;;;;;5076156;28;20266;-70
2021/03/28 06:02:07;;;;;;;17.60;5.47;;;5.50;92.20;;;;;;5075857;28;20032;-70
2021/03/28 06:05:03;;;;;;;19.08;7.65;;;5.60;92.10;;;;;;5075208;28;20036;-70
2021/03/28 06:07:53;;;;;;;18.90;6.68;;;5.70;92.00;;;;;;5076051;28;20117;-70
2021/03/28 06:10:43;;;;;;;19.05;6.30;;;5.80;91.80;;;;;;5075581;28;20047;-70
2021/03/28 06:13:36;;;;;;;20.10;6.32;;;5.90;91.90;;;;;;5075250;28;20060;-70
2021/03/28 06:16:14;;;;;;;14.95;5.85;;;6.00;91.80;;;;;;5074974;28;20119;-70
2021/03/28 06:18:51;;;;;;;20.30;7.15;;;6.10;91.70;;;;;;5075157;28;20048;-69
2021/03/28 06:21:35;;;;;;;17.45;6.85;;;6.20;91.50;;;;;;5075322;28;20040;-69
2021/03/28 06:24:23;;;;;;;15.52;5.75;;;6.30;91.30;;;;;;5075310;28;20055;-69
2021/03/28 06:27:17;;;;;;;14.65;5.80;;;6.40;91.30;;;;;;5075015;28;20040;-69
2021/03/28 06:30:12;;;;;;;20.35;5.88;;;6.40;91.10;;;;;;5075114;28;20082;-69
2021/03/28 06:33:06;;;;;;;19.70;6.30;;;6.70;90.90;;;;;;5003418;28;20538;-69
2021/03/28 06:36:01;;;;;;;15.48;5.90;;;6.80;90.60;;;;;;5074893;28;20124;-69
2021/03/28 06:39:03;;;;;;;16.75;5.95;;;6.90;90.20;;;;;;5075243;28;20064;-69
2021/03/28 06:41:53;;;;;;;16.05;5.47;;;7.00;90.60;;;;;;4993367;28;20125;-69
2021/03/28 06:44:50;;;;;;;14.27;5.53;;;7.10;90.10;;;;;;5073308;28;20045;-69
2021/03/28 06:47:52;;;;;;;11.60;5.80;;;7.40;89.80;;;;;;5057114;28;20132;-69
2021/03/28 06:50:56;;;;;;;15.13;4.95;;;7.80;89.40;;;;;;5075116;28;20044;-69
2021/03/28 06:53:27;;;;;;;15.95;5.32;;;8.10;87.80;;;;;;5074638;28;20047;-69
2021/03/28 06:56:18;;;;;;;12.32;4.82;;;8.40;87.60;;;;;;5074377;28;20051;-69
2021/03/28 06:59:06;;;;;;;11.88;4.32;;;8.50;86.80;;;;;;5074807;28;20503;-69
2021/03/28 07:01:47;;;;;;;11.23;5.30;;;8.60;86.40;;;;;;5074576;28;20377;-69
2021/03/28 07:04:45;;;;;;;12.27;4.85;;;8.50;86.40;;;;;;5074589;28;20043;-69
2021/03/28 07:07:25;;;;;;;11.77;4.35;;;8.40;86.30;;;;;;5074327;28;20045;-69
2021/03/28 07:10:28;;;;;;;10.18;4.45;;;8.40;86.50;;;;;;5074756;28;20055;-69
2021/03/28 07:13:31;;;;;;;10.80;4.07;;;8.30;86.60;;;;;;5050252;28;20480;-70
2021/03/28 07:16:22;;;;;;;12.60;4.43;;;8.30;87.40;;;;;;5055892;28;20036;-69
2021/03/28 07:19:34;;;;;;;13.35;4.45;;;8.40;87.20;;;;;;5074006;28;20048;-69
2021/03/28 07:22:21;;;;;;;12.40;4.07;;;8.60;86.50;;;;;;5074121;28;20115;-69
2021/03/28 07:25:26;;;;;;;12.52;5.00;;;8.70;86.20;;;;;;5074187;28;20036;-69
2021/03/28 07:28:32;;;;;;;10.63;3.38;;;8.70;85.10;;;;;;5074316;28;20044;-69
2021/03/28 07:31:12;;;;;;;12.20;4.10;;;8.60;85.90;;;;;;5074231;28;20088;-69
2021/03/28 07:33:57;;;;;;;9.48;3.42;;;8.60;86.40;;;;;;5074085;28;20064;-70
2021/03/28 07:36:41;;;;;;;;;;;8.50;86.50;;;;;;5073986;28;20036;-70
2021/03/28 07:39:32;;;;;;;10.50;3.33;;;8.50;86.30;;;;;;5073917;28;19924;-69
2021/03/28 07:42:28;;;;;;;11.73;3.80;;;8.60;87.00;;;;;;5073879;28;20067;-70
2021/03/28 07:45:15;;;;;;;14.55;3.70;;;8.60;87.00;;;;;;5073822;28;20039;-70
2021/03/28 07:48:00;;;;;;;8.73;3.10;;;8.60;87.00;;;;;;5074180;28;20032;-69
2021/03/28 07:51:07;;;;;;;11.40;3.40;;;8.70;87.10;;;;;;5073848;28;20045;-70
2021/03/28 07:54:20;;;;;;;14.98;4.60;;;8.80;86.70;;;;;;5074241;28;20033;-69
2021/03/28 07:57:15;;;;;;;11.00;3.00;;;8.80;86.50;;;;;;5073435;28;20048;-69
2021/03/28 07:59:43;;;;;;;10.57;3.38;;;8.80;86.10;;;;;;5073952;28;20418;-70
2021/03/28 08:02:28;;;;;;;12.38;3.72;;;8.90;86.50;;;;;;5072903;28;20052;-69
2021/03/28 08:05:25;;;;;;;16.52;3.53;;;9.00;86.10;;;;;;5072392;28;20036;-68
2021/03/28 08:08:19;;;;;;;11.65;3.42;;;9.20;86.30;;;;;;5073231;28;20120;-69
2021/03/28 08:11:32;;;;;;;8.90;2.55;;;9.40;84.90;;;;;;5038372;28;20051;-69
2021/03/28 08:14:19;;;;;;;11.55;3.72;;;9.50;84.20;;;;;;5062494;28;20052;-70
2021/03/28 08:17:00;;;;;;;10.15;2.70;;;9.50;84.90;;;;;;5072824;28;20040;-69
2021/03/28 08:20:25;;;;;;;9.25;2.47;;;9.50;84.50;;;;;;5073206;28;20036;-69
2021/03/28 08:23:16;;;;;;;20.13;3.50;;;9.50;83.90;;;;;;4991943;28;20065;-69
2021/03/28 08:26:00;;;;;;;12.75;2.75;;;9.60;83.90;;;;;;4991308;28;20116;-69
2021/03/28 08:28:45;;;;;;;;;;;9.80;83.60;;;;;;5064575;28;20500;-69
2021/03/28 08:31:19;;;;;;;10.95;3.20;;;10.10;83.20;;;;;;5072859;28;20015;-69
2021/03/28 08:34:23;;;;;;;8.77;2.67;;;10.00;81.80;;;;;;5072928;28;20404;-69
2021/03/28 08:37:19;;;;;;;8.18;2.63;;;10.00;81.20;;;;;;5073136;28;20369;-69
2021/03/28 08:39:57;;;;;;;10.18;3.25;;;9.90;81.50;;;;;;5073187;28;20060;-69
2021/03/28 08:42:37;;;;;;;6.93;2.60;;;9.90;81.80;;;;;;5073357;28;20040;-69
2021/03/28 08:45:15;;;;;;;8.18;2.92;;;9.90;82.00;;;;;;5072460;28;20036;-69
2021/03/28 08:47:43;;;;;;;11.98;2.95;;;10.00;81.90;;;;;;5073212;28;20473;-69
2021/03/28 08:50:35;;;;;;;4.72;2.08;;;10.10;81.10;;;;;;5073364;28;20039;-69
2021/03/28 08:53:23;;;;;;;10.63;2.47;;;10.10;81.50;;;;;;5073035;28;20129;-69
2021/03/28 08:56:06;;;;;;;12.63;2.83;;;10.30;79.80;;;;;;5072489;28;20040;-69
2021/03/28 08:58:37;;;;;;;;;;;10.40;80.80;;;;;;5073213;28;20130;-69
2021/03/28 09:01:22;;;;;;;8.90;2.42;;;10.60;79.40;;;;;;5072866;28;19924;-69
2021/03/28 09:03:56;;;;;;;6.60;2.47;;;10.70;77.90;;;;;;5072974;28;20094;-69
2021/03/28 09:06:43;;;;;;;9.20;2.17;;;10.80;77.00;;;;;;5072288;28;20041;-69
2021/03/28 09:09:26;;;;;;;11.75;2.80;;;11.00;76.60;;;;;;5072794;28;20033;-69
2021/03/28 09:12:17;;;;;;;10.60;2.47;;;11.20;77.10;;;;;;5073276;28;20064;-68
2021/03/28 09:15:12;;;;;;;6.38;1.77;;;11.40;76.30;;;;;;5073522;28;20036;-70
2021/03/28 09:17:40;;;;;;;7.40;2.45;;;11.40;76.00;;;;;;5076669;28;20090;-69
2021/03/28 09:20:24;;;;;;;12.88;2.50;;;11.30;75.60;;;;;;5076600;28;20044;-69
2021/03/28 09:23:25;;;;;;;6.50;2.25;;;11.40;74.40;;;;;;5076613;28;20047;-69
2021/03/28 09:26:03;;;;;;;9.63;2.88;;;11.40;73.20;;;;;;5071844;28;20389;-69
2021/03/28 09:28:39;;;;;;;6.57;1.90;;;11.40;72.80;;;;;;5076191;28;20036;-69
2021/03/28 09:31:23;;;;;;;9.82;2.05;;;11.40;71.80;;;;;;5076607;28;20069;-70
2021/03/28 09:34:14;;;;;;;6.43;2.00;;;11.30;71.40;;;;;;5076212;28;20047;-69
2021/03/28 09:37:12;;;;;;;6.45;1.65;;;11.20;71.80;;;;;;5075663;28;20040;-71
2021/03/28 09:39:46;;;;;;;10.32;2.22;;;11.30;71.50;;;;;;5076547;28;20044;-69
2021/03/28 09:42:33;;;;;;;6.55;2.20;;;11.40;72.50;;;;;;5076210;28;20041;-69
2021/03/28 09:45:36;;;;;;;12.27;2.95;;;11.50;71.90;;;;;;5058007;28;20032;-69
2021/03/28 09:48:26;;;;;;;8.07;2.40;;;11.60;71.90;;;;;;5076137;28;20052;-69
2021/03/28 09:51:23;;;;;;;8.73;2.88;;;11.70;71.30;;;;;;5076128;28;20036;-69
2021/03/28 09:54:06;;;;;;;8.60;2.70;;;11.70;70.50;;;;;;5075910;28;20051;-69
2021/03/28 09:57:05;;;;;;;6.07;2.20;;;11.70;71.10;;;;;;5075332;28;20032;-69
2021/03/28 09:59:49;;;;;;;7.65;3.33;;;11.70;71.10;;;;;;5075859;28;20044;-69
2021/03/28 10:02:27;;;;;;;14.02;3.30;;;11.60;72.50;;;;;;5074991;28;20496;-68
2021/03/28 10:05:12;;;;;;;9.50;2.80;;;11.60;71.60;;;;;;5075211;28;20485;-69
2021/03/28 10:07:58;;;;;;;7.72;2.55;;;11.70;72.10;;;;;;5075415;28;20040;-69
2021/03/28 10:10:38;;;;;;;5.70;2.75;;;11.50;70.70;;;;;;5075658;28;20049;-70
2021/03/28 10:13:30;;;;;;;8.63;2.35;;;11.50;71.30;;;;;;5075441;28;20045;-69
2021/03/28 10:16:07;;;;;;;5.45;1.95;;;11.40;70.00;;;;;;5074947;28;20044;-70
2021/03/28 10:18:53;;;;;;;6.25;3.53;;;11.30;70.90;;;;;;5075385;28;20044;-68
2021/03/28 10:21:40;;;;;;;10.48;3.90;;;11.40;71.30;;;;;;5076084;28;20036;-69
2021/03/28 10:24:43;;;;;;;8.32;2.17;;;11.50;71.70;;;;;;5075214;28;20047;-69
2021/03/28 10:27:32;;;;;;;7.57;2.63;;;11.50;72.60;;;;;;5074300;28;20135;-69
2021/03/28 10:30:17;;;;;;;9.68;2.25;;;11.60;71.80;;;;;;5075061;28;20045;-69
2021/03/28 10:32:52;;;;;;;5.50;2.33;;;11.70;71.30;;;;;;5075088;28;20036;-69
2021/03/28 10:35:31;;;;;;;9.25;3.15;;;11.60;72.50;;;;;;5075167;28;20044;-69
2021/03/28 10:38:27;;;;;;;13.77;3.95;;;11.60;73.70;;;;;;5075367;28;20044;-70
2021/03/28 10:41:20;;;;;;;7.78;2.80;;;11.50;74.20;;;;;;5075029;28;20040;-70
2021/03/28 10:43:53;;;;;;;10.40;3.95;;;11.40;76.80;;;;;;5075096;28;20040;-70
2021/03/28 10:46:37;;;;;;;11.73;3.92;;;11.30;76.90;;;;;;5074465;28;20041;-69
2021/03/28 10:49:02;;;;;;;10.52;3.00;;;11.20;77.70;;;;;;5075025;28;20162;-69
2021/03/28 10:51:57;;;;;;;12.85;2.58;;;11.10;78.50;;;;;;5074714;28;20063;-69
2021/03/28 10:55:00;;;;;;;9.18;2.90;;;11.10;78.90;;;;;;5074497;28;20037;-70
2021/03/28 10:58:01;;;;;;;9.83;3.17;;;10.90;79.50;;;;;;5056588;28;20519;-71
2021/03/28 11:01:07;;;;;;;13.15;3.70;;;10.80;79.50;;;;;;5074409;28;20067;-69
2021/03/28 11:04:10;;;;;;;9.13;2.58;;;10.60;80.70;;;;;;5074584;28;20037;-69
2021/03/28 11:06:54;;;;;;;16.98;3.25;;;10.60;81.10;;;;;;5073982;28;20036;-69
2021/03/28 11:09:57;;;;;;;11.32;3.42;;;10.60;81.60;;;;;;5074278;28;20033;-69
2021/03/28 11:12:47;;;;;;;11.95;2.50;;;10.60;83.20;;;;;;5074538;28;20044;-69
2021/03/28 11:15:40;;;;;;;10.77;3.35;;;10.60;81.60;;;;;;5074081;28;20041;-69
2021/03/28 11:18:36;;;;;;;7.25;2.90;;;10.60;82.60;;;;;;5074266;28;20115;-69
2021/03/28 11:21:23;;;;;;;9.55;2.83;;;10.60;83.20;;;;;;5056466;28;20098;-69
2021/03/28 11:24:26;;;;;;;7.88;3.00;;;10.50;83.80;;;;;;5074479;28;20040;-69
2021/03/28 11:27:11;;;;;;;7.22;2.58;;;10.40;82.10;;;;;;5074016;28;20040;-69
2021/03/28 11:29:47;;;;;;;9.52;2.50;;;10.40;83.60;;;;;;5074418;28;20047;-70
2021/03/28 11:33:00;;;;;;;13.32;3.50;;;10.40;82.80;;;;;;5074588;28;20115;-70
2021/03/28 11:35:43;;;;;;;9.75;3.45;;;10.50;84.20;;;;;;4992045;28;20062;-69
2021/03/28 11:38:18;;;;;;;12.05;3.75;;;10.60;82.80;;;;;;4991649;28;20442;-69
2021/03/28 11:41:11;;;;;;;7.70;2.80;;;10.60;82.30;;;;;;5044853;28;20084;-69
2021/03/28 11:43:46;;;;;;;9.13;3.20;;;10.50;83.80;;;;;;5073790;28;20251;-70
2021/03/28 11:46:36;;;;;;;14.77;3.40;;;10.50;83.10;;;;;;5055612;28;20306;-69
2021/03/28 11:49:05;;;;;;;11.07;3.30;;;10.40;83.90;;;;;;5074104;28;20037;-69
2021/03/28 11:51:33;;;;;;;12.00;3.53;;;10.30;84.90;;;;;;5073572;28;20032;-69
2021/03/28 11:54:07;;;;;;;9.25;3.17;;;10.20;86.20;;;;;;5073409;28;20500;-69
2021/03/28 11:56:46;;;;;;;9.20;3.47;;;10.20;86.20;;;;;;5073287;28;20105;-69
2021/03/28 11:59:31;;;;;;;10.75;3.30;;;10.20;88.10;;;;;;5073741;28;20066;-68
2021/03/28 12:04:35;;;;;;;8.45;3.53;;;10.10;87.70;;;;;;5073625;28;20110;-69
2021/03/28 12:07:30;;;;;;;11.32;4.03;;;10.00;87.60;;;;;;5073301;28;20495;-69
2021/03/28 12:09:58;;;;;;;9.82;3.30;;;10.10;89.20;;;;;;5073422;28;20119;-69
2021/03/28 12:12:39;;;;;;;14.80;2.65;;;10.00;88.50;;;;;;5073453;28;20045;-69
2021/03/28 12:15:45;;;;;;;9.23;2.75;;;10.10;88.90;;;;;;5073693;28;20032;-69
2021/03/28 12:18:22;;;;;;;12.10;2.88;;;10.10;89.10;;;;;;5073322;28;20040;-69
2021/03/28 12:21:04;;;;;;;18.90;5.25;;;10.10;88.70;;;;;;5073873;28;20040;-69
2021/03/28 12:23:57;;;;;;;10.65;3.10;;;10.10;88.70;;;;;;5073399;28;20049;-69
2021/03/28 12:26:26;;;;;;;12.13;4.18;;;10.10;90.00;;;;;;5072515;28;20471;-69
2021/03/28 12:28:58;;;;;;;12.48;3.15;;;10.00;89.30;;;;;;5055572;28;20124;-69
2021/03/28 12:31:27;;;;;;;18.60;4.40;;;10.10;89.10;;;;;;5073368;28;20094;-69
2021/03/28 12:34:19;;;;;;;17.52;4.00;;;10.10;90.10;;;;;;5073007;28;20441;-69
2021/03/28 12:37:08;;;;;;;12.60;3.40;;;10.00;90.40;;;;;;5073050;28;20404;-69
2021/03/28 12:39:45;;;;;;;9.30;3.20;;;10.00;90.40;;;;;;5060671;28;20468;-69
2021/03/28 12:42:25;;;;;;;14.85;4.00;;;9.90;90.90;;;;;;5072964;28;20040;-69
2021/03/28 12:45:11;;;;;;;9.60;3.17;;;9.90;90.70;;;;;;5072742;28;20431;-69
2021/03/28 12:47:49;;;;;;;17.23;4.05;;;9.80;91.50;;;;;;5059024;28;20143;-68
2021/03/28 12:50:14;;;;;;;12.63;4.50;;;9.90;91.50;;;;;;5074883;28;20032;-69
2021/03/28 12:52:48;;;;;;;14.10;4.32;;;9.90;91.50;;;;;;5077052;28;20035;-68
2021/03/28 12:55:16;;;;;;;;;;;9.90;91.50;;;;;;5077299;28;20036;-68
2021/03/28 12:57:47;;;;;;;9.05;3.30;;;9.90;91.10;;;;;;5077204;28;19924;-68
2021/03/28 13:00:15;;;;;;;12.82;4.10;;;9.90;91.50;;;;;;5077317;28;20557;-68
2021/03/28 13:02:42;;;;;;;23.00;4.95;;;9.90;91.50;;;;;;5076646;28;20041;-68
2021/03/28 13:05:21;;;;;;;13.70;4.13;;;9.90;91.30;;;;;;5076513;28;20111;-68
2021/03/28 13:07:50;;;;;;;21.42;4.70;;;9.90;91.60;;;;;;5076763;28;20185;-68
2021/03/28 13:10:18;;;;;;;17.85;4.43;;;9.90;91.30;;;;;;5076971;28;20082;-68
2021/03/28 13:12:45;;;;;;;14.68;4.18;;;9.90;91.40;;;;;;5076899;28;20080;-68
2021/03/28 13:15:29;;;;;;;14.43;3.80;;;9.90;91.10;;;;;;5076360;28;20037;-68
2021/03/28 13:18:18;;;;;;;15.85;4.47;;;9.90;91.20;;;;;;5076566;28;20131;-68
2021/03/28 13:21:09;;;;;;;13.82;3.90;;;9.90;91.10;;;;;;5076624;28;20044;-68
2021/03/28 13:23:50;;;;;;;12.77;3.90;;;9.90;90.50;;;;;;5040003;28;20552;-68
2021/03/28 13:26:34;;;;;;;17.92;4.80;;;9.90;90.50;;;;;;5075909;28;20048;-68
2021/03/28 13:29:18;;;;;;;19.00;4.75;;;9.90;90.70;;;;;;5076605;28;20032;-68
2021/03/28 13:31:55;;;;;;;15.07;4.00;;;9.90;90.70;;;;;;5076326;28;20508;-68
2021/03/28 13:34:26;;;;;;;20.00;4.35;;;9.80;90.80;;;;;;5058267;28;20441;-68
2021/03/28 13:37:14;;;;;;;15.63;4.38;;;9.80;90.90;;;;;;5076261;28;20040;-68
2021/03/28 13:40:00;;;;;;;12.05;4.22;;;9.80;91.30;;;;;;5075986;28;20043;-68
2021/03/28 13:42:40;;;;;;;14.18;4.28;;;9.80;90.90;;;;;;5075594;28;20124;-68
2021/03/28 13:45:21;;;;;;;15.93;4.18;;;9.80;91.00;;;;;;5075680;28;20040;-68
2021/03/28 13:48:06;;;;;;;14.48;4.90;;;9.70;91.50;;;;;;5075704;28;20036;-68
2021/03/28 13:50:55;;;;;;;17.98;4.30;;;9.70;91.50;;;;;;5075904;28;20044;-68
2021/03/28 13:53:24;;;;;;;18.92;4.45;;;9.70;91.40;;;;;;5075791;28;20449;-68
2021/03/28 13:56:23;;;;;;;13.40;4.03;;;9.70;91.20;;;;;;5075324;28;20081;-69
2021/03/28 13:59:04;;;;;;;11.70;4.20;;;9.60;91.30;;;;;;5075828;28;20043;-68
2021/03/28 14:01:39;;;;;;;12.20;3.47;;;9.60;91.20;;;;;;5074381;28;20063;-68
2021/03/28 14:04:28;;;;;;;13.43;3.70;;;9.70;91.00;;;;;;5075597;28;20033;-68
2021/03/28 14:07:06;;;;;;;18.55;3.95;;;9.70;90.70;;;;;;5075804;28;20044;-68
2021/03/28 14:09:38;;;;;;;8.20;3.53;;;9.70;90.70;;;;;;5075550;28;20068;-68
2021/03/28 14:12:08;;;;;;;13.57;3.55;;;9.70;90.50;;;;;;5075297;28;20485;-68
2021/03/28 14:14:41;;;;;;;13.10;3.95;;;9.80;90.30;;;;;;5075222;28;20035;-68
2021/03/28 14:17:21;;;;;;;16.52;4.00;;;9.80;90.50;;;;;;5075049;28;20484;-68
2021/03/28 14:19:48;;;;;;;15.73;3.55;;;9.90;90.40;;;;;;5075381;28;20045;-68
2021/03/28 14:22:33;;;;;;;14.88;4.13;;;9.80;90.50;;;;;;5075247;28;20044;-67
2021/03/28 14:24:59;;;;;;;16.40;3.60;;;9.90;90.30;;;;;;5075068;28;20042;-68